Aviation Digital Data Service (ADDS)

Output produced by METARs form (0404 UTC 05 March 2015)
found at http://aviationweather.gov/adds/metars/
 
KERI 050103Z 0501/0524 26008KT P6SM SCT025 BKN100 
     FM050600 32008KT P6SM SCT025 BKN250 
     FM051400 33010KT P6SM SCT025 BKN100